Time;durP1;ratioP1;P1;durP2;ratioP2;P2;SDS_P1;SDS_P2;PMS_P1;PMS_P2;Temp;Humidity;BMP_temperature;BMP_pressure;BME280_temperature;BME280_humidity;BME280_pressure;Samples;Min_cycle;Max_cycle;Signal;HPM_P1;HPM_P2
2021/05/22 00:01:26;;;;;;;1.98;0.80;;;11.40;1.00;;;;;;5042618;28;20055;-62
2021/05/22 00:04:14;;;;;;;3.00;0.70;;;11.40;1.00;;;;;;5045709;28;20083;-62
2021/05/22 00:07:02;;;;;;;11.75;1.23;;;11.50;1.00;;;;;;5046819;28;20053;-62
2021/05/22 00:09:50;;;;;;;1.83;0.90;;;11.40;1.00;;;;;;5044540;28;20053;-62
2021/05/22 00:12:40;;;;;;;0.93;0.73;;;11.40;1.00;;;;;;5043934;28;20053;-63
2021/05/22 00:15:29;;;;;;;1.30;0.70;;;11.40;1.00;;;;;;5042491;28;20049;-62
2021/05/22 00:18:17;;;;;;;5.38;0.80;;;11.40;1.00;;;;;;5050838;28;20072;-61
2021/05/22 00:21:05;;;;;;;4.60;0.95;;;11.40;1.00;;;;;;5042690;28;20052;-62
2021/05/22 00:23:56;;;;;;;2.00;0.70;;;11.50;1.00;;;;;;5051280;28;20048;-62
2021/05/22 00:26:44;;;;;;;4.78;0.85;;;11.50;1.00;;;;;;5049653;28;20041;-61
2021/05/22 00:29:36;;;;;;;1.40;0.60;;;11.50;1.00;;;;;;5051810;28;20049;-62
2021/05/22 00:32:24;;;;;;;4.53;1.63;;;11.50;1.00;;;;;;5052525;28;20052;-62
2021/05/22 00:35:12;;;;;;;1.65;0.73;;;11.50;1.00;;;;;;5049555;28;20460;-62
2021/05/22 00:38:00;;;;;;;4.72;1.08;;;11.50;1.00;;;;;;5051650;28;20072;-61
2021/05/22 00:40:49;;;;;;;2.38;0.70;;;11.50;1.00;;;;;;5060217;28;20428;-62
2021/05/22 00:43:37;;;;;;;3.00;0.98;;;11.50;1.00;;;;;;5051240;28;20540;-62
2021/05/22 00:46:26;;;;;;;2.50;1.20;;;11.50;1.00;;;;;;5049345;28;20057;-61
2021/05/22 00:49:14;;;;;;;3.40;1.25;;;11.50;1.00;;;;;;5052712;28;20473;-62
2021/05/22 00:52:02;;;;;;;3.15;0.73;;;11.40;1.00;;;;;;5046971;28;20049;-63
2021/05/22 00:54:50;;;;;;;1.40;0.70;;;11.40;1.00;;;;;;5047303;28;20052;-62
2021/05/22 00:57:41;;;;;;;1.55;0.60;;;11.30;1.00;;;;;;5046214;28;20052;-63
2021/05/22 01:00:36;;;;;;;1.92;1.02;;;11.30;1.00;;;;;;5046086;28;20460;-62
2021/05/22 01:03:27;;;;;;;1.55;0.70;;;11.30;1.00;;;;;;5047257;28;20077;-62
2021/05/22 01:06:16;;;;;;;2.25;0.98;;;11.30;1.00;;;;;;5062652;28;20131;-62
2021/05/22 01:09:08;;;;;;;2.55;0.98;;;11.30;1.00;;;;;;5047802;28;20047;-62
2021/05/22 01:12:01;;;;;;;2.50;0.80;;;11.20;1.00;;;;;;5047135;28;20056;-62
2021/05/22 01:14:57;;;;;;;1.98;0.65;;;11.20;1.00;;;;;;5044265;28;20123;-63
2021/05/22 01:17:48;;;;;;;3.28;0.90;;;11.20;1.00;;;;;;5046492;28;20041;-63
2021/05/22 01:20:40;;;;;;;1.67;0.63;;;11.10;1.00;;;;;;5044136;28;20037;-62
2021/05/22 01:23:32;;;;;;;4.15;0.73;;;11.10;1.00;;;;;;5051029;28;20148;-62
2021/05/22 01:26:22;;;;;;;4.72;0.70;;;11.00;1.00;;;;;;5050876;28;20073;-62
2021/05/22 01:29:12;;;;;;;4.50;0.82;;;10.90;1.00;;;;;;5048346;28;20049;-63
2021/05/22 01:32:00;;;;;;;1.40;0.57;;;10.90;1.00;;;;;;5044692;28;20634;-63
2021/05/22 01:35:04;;;;;;;2.13;0.70;;;11.00;1.00;;;;;;5047502;28;20052;-63
2021/05/22 01:37:52;;;;;;;1.60;0.75;;;10.90;1.00;;;;;;5047250;28;20085;-62
2021/05/22 01:40:41;;;;;;;2.35;0.80;;;10.90;1.00;;;;;;5046003;28;20041;-63
2021/05/22 01:43:30;;;;;;;1.27;0.65;;;10.80;1.00;;;;;;5048901;28;20142;-63
2021/05/22 01:46:18;;;;;;;2.35;1.15;;;10.00;1.00;;;;;;5043885;28;20529;-63
2021/05/22 01:49:06;;;;;;;4.75;1.15;;;9.50;3.70;;;;;;5045591;28;20049;-64
2021/05/22 01:51:56;;;;;;;3.85;0.77;;;9.20;5.80;;;;;;5044394;28;20504;-64
2021/05/22 01:54:46;;;;;;;1.55;0.70;;;9.20;9.20;;;;;;5045911;28;20133;-64
2021/05/22 01:57:34;;;;;;;3.38;0.90;;;9.10;11.50;;;;;;5046157;28;20492;-63
2021/05/22 02:00:23;;;;;;;2.40;0.70;;;9.10;12.50;;;;;;5045536;28;20061;-63
2021/05/22 02:03:16;;;;;;;2.90;0.95;;;9.10;12.10;;;;;;5046180;28;20044;-63
2021/05/22 02:06:12;;;;;;;3.03;1.00;;;9.30;11.70;;;;;;5045924;28;20037;-63
2021/05/22 02:09:01;;;;;;;;;;;9.30;14.20;;;;;;5046043;28;20045;-63
2021/05/22 02:11:52;;;;;;;1.33;0.60;;;9.40;13.50;;;;;;5049014;28;19928;-63
2021/05/22 02:14:42;;;;;;;2.40;0.75;;;9.20;13.00;;;;;;5049120;28;20117;-62
2021/05/22 02:17:32;;;;;;;4.57;1.10;;;9.00;14.70;;;;;;5050572;28;20611;-62
2021/05/22 02:20:22;;;;;;;2.05;1.10;;;9.00;16.90;;;;;;5043473;28;20045;-62
2021/05/22 02:23:12;;;;;;;2.33;0.80;;;9.00;18.70;;;;;;5046975;28;20412;-62
2021/05/22 02:26:01;;;;;;;3.67;0.75;;;9.00;21.80;;;;;;5046635;28;20149;-63
2021/05/22 02:28:50;;;;;;;3.58;1.02;;;9.00;22.10;;;;;;5045046;28;20124;-63
2021/05/22 02:31:40;;;;;;;1.95;0.60;;;9.00;23.20;;;;;;5046200;28;20112;-63
2021/05/22 02:34:33;;;;;;;3.38;0.70;;;8.90;25.10;;;;;;5047304;28;20186;-64
2021/05/22 02:37:26;;;;;;;2.42;0.60;;;8.90;28.90;;;;;;5045885;28;20135;-63
2021/05/22 02:40:17;;;;;;;3.67;0.90;;;8.70;30.60;;;;;;5042469;28;20614;-63
2021/05/22 02:43:07;;;;;;;2.75;0.70;;;8.70;32.50;;;;;;5043117;28;20071;-63
2021/05/22 02:45:56;;;;;;;2.40;0.70;;;8.60;32.70;;;;;;5044220;28;20045;-63
2021/05/22 02:48:45;;;;;;;1.80;0.60;;;8.50;34.70;;;;;;5046686;28;20125;-63
2021/05/22 02:51:34;;;;;;;3.47;0.80;;;8.40;35.30;;;;;;5045017;28;20064;-61
2021/05/22 02:54:39;;;;;;;1.65;0.63;;;8.40;36.70;;;;;;5045009;28;20131;-62
2021/05/22 02:57:32;;;;;;;2.78;0.80;;;8.40;34.80;;;;;;5029195;28;20053;-64
2021/05/22 03:00:21;;;;;;;0.70;0.55;;;8.60;36.80;;;;;;5042335;28;20049;-63
2021/05/22 03:03:09;;;;;;;1.50;0.73;;;8.70;35.00;;;;;;5044874;28;20053;-63
2021/05/22 03:06:00;;;;;;;2.05;0.75;;;8.70;34.50;;;;;;5045633;28;20114;-63
2021/05/22 03:08:51;;;;;;;2.38;0.90;;;8.70;35.20;;;;;;5043373;28;20055;-62
2021/05/22 03:11:41;;;;;;;0.90;0.70;;;8.70;33.80;;;;;;5044008;28;20041;-63
2021/05/22 03:14:30;;;;;;;1.65;0.85;;;8.70;34.40;;;;;;5045974;28;20083;-63
2021/05/22 03:17:18;;;;;;;1.58;1.00;;;8.70;34.30;;;;;;5044972;28;20052;-63
2021/05/22 03:20:08;;;;;;;2.60;0.88;;;8.80;35.70;;;;;;5042782;28;20041;-63
2021/05/22 03:22:56;;;;;;;2.15;0.70;;;8.80;33.90;;;;;;5044950;28;20048;-63
2021/05/22 03:25:45;;;;;;;1.63;0.60;;;8.70;31.90;;;;;;5045161;28;20550;-63
2021/05/22 03:28:33;;;;;;;3.25;0.70;;;8.90;32.80;;;;;;5045647;28;20049;-63
2021/05/22 03:31:21;;;;;;;5.07;0.80;;;8.90;30.30;;;;;;5039599;28;20465;-62
2021/05/22 03:34:09;;;;;;;3.03;0.80;;;8.90;31.50;;;;;;5043927;28;20068;-64
2021/05/22 03:36:58;;;;;;;4.72;1.25;;;9.00;30.80;;;;;;5044332;28;20060;-63
2021/05/22 03:39:46;;;;;;;4.82;0.95;;;9.10;28.90;;;;;;5043616;28;20037;-63
2021/05/22 03:42:36;;;;;;;3.45;0.80;;;9.10;29.00;;;;;;5043888;28;20056;-63
2021/05/22 03:45:24;;;;;;;4.28;0.85;;;9.10;29.10;;;;;;5044682;28;20127;-64
2021/05/22 03:48:12;;;;;;;1.67;0.77;;;9.10;27.50;;;;;;5044803;28;20516;-64
2021/05/22 03:51:00;;;;;;;1.33;0.70;;;9.10;26.50;;;;;;5041140;28;20068;-64
2021/05/22 03:53:48;;;;;;;1.77;0.93;;;9.10;27.90;;;;;;5045922;28;20190;-63
2021/05/22 03:56:36;;;;;;;3.47;1.00;;;9.20;29.10;;;;;;5047517;28;20560;-63
2021/05/22 03:59:27;;;;;;;4.30;1.15;;;9.10;28.70;;;;;;5045946;28;20069;-63
2021/05/22 04:02:15;;;;;;;5.57;1.00;;;9.20;27.40;;;;;;5047434;28;20045;-63
2021/05/22 04:05:04;;;;;;;1.38;0.90;;;9.30;27.80;;;;;;5048590;28;20423;-63
2021/05/22 04:07:53;;;;;;;2.22;0.95;;;9.30;25.80;;;;;;5048616;28;20052;-63
2021/05/22 04:10:41;;;;;;;1.98;0.88;;;9.30;24.40;;;;;;5044525;28;20045;-63
2021/05/22 04:13:29;;;;;;;6.15;1.10;;;9.40;24.30;;;;;;5046175;28;20052;-63
2021/05/22 04:16:18;;;;;;;4.72;0.85;;;9.40;22.50;;;;;;5048330;28;20580;-64
2021/05/22 04:19:06;;;;;;;5.60;1.45;;;9.40;24.20;;;;;;5048090;28;20519;-63
2021/05/22 04:21:54;;;;;;;3.15;0.95;;;9.50;22.40;;;;;;5046846;28;20045;-62
2021/05/22 04:24:42;;;;;;;3.72;1.20;;;9.50;24.00;;;;;;5048403;28;20112;-62
2021/05/22 04:27:29;;;;;;;1.75;0.88;;;9.40;23.60;;;;;;5049463;28;20248;-62
2021/05/22 04:30:18;;;;;;;2.15;0.90;;;9.50;23.50;;;;;;5046752;28;20045;-63
2021/05/22 04:33:07;;;;;;;4.50;0.85;;;9.50;20.20;;;;;;5045789;28;20194;-63
2021/05/22 04:35:55;;;;;;;2.58;0.88;;;9.40;20.60;;;;;;5047566;28;20052;-63
2021/05/22 04:38:43;;;;;;;3.53;1.23;;;9.40;21.60;;;;;;5045997;28;20138;-63
2021/05/22 04:41:31;;;;;;;2.95;1.00;;;9.50;22.60;;;;;;5047508;28;20040;-63
2021/05/22 04:44:19;;;;;;;5.57;1.30;;;9.50;22.10;;;;;;5048652;28;20060;-63
2021/05/22 04:47:09;;;;;;;1.73;0.80;;;9.50;23.70;;;;;;5048523;28;20059;-62
2021/05/22 04:49:57;;;;;;;3.90;1.10;;;9.50;22.40;;;;;;5047366;28;20099;-63
2021/05/22 04:52:45;;;;;;;1.73;0.63;;;11.80;8.00;;;;;;5046705;28;20107;-63
2021/05/22 04:55:33;;;;;;;1.63;1.05;;;13.90;1.00;;;;;;5046627;28;20136;-63
2021/05/22 04:58:21;;;;;;;1.38;0.60;;;15.60;1.00;;;;;;5045483;28;20761;-63
2021/05/22 05:01:09;;;;;;;1.02;0.60;;;15.20;1.00;;;;;;5045437;28;20041;-63
2021/05/22 05:03:57;;;;;;;2.70;0.90;;;15.70;1.00;;;;;;5047913;28;20052;-64
2021/05/22 05:06:46;;;;;;;4.68;0.77;;;16.40;1.00;;;;;;5046097;28;20049;-63
2021/05/22 05:09:35;;;;;;;1.58;0.60;;;15.10;1.00;;;;;;5045549;28;20099;-64
2021/05/22 05:12:23;;;;;;;4.03;0.70;;;15.40;1.00;;;;;;5040117;28;20565;-64
2021/05/22 05:15:12;;;;;;;1.75;0.70;;;13.60;1.00;;;;;;5047714;28;20052;-64
2021/05/22 05:18:00;;;;;;;3.78;0.70;;;12.20;1.00;;;;;;5047685;28;20207;-64
2021/05/22 05:20:48;;;;;;;5.43;0.95;;;11.20;1.00;;;;;;5041561;28;20380;-64
2021/05/22 05:23:36;;;;;;;3.17;0.77;;;11.10;1.60;;;;;;5047540;28;20049;-64
2021/05/22 05:26:24;;;;;;;4.75;0.88;;;14.60;1.00;;;;;;5047843;28;20456;-63
2021/05/22 05:29:12;;;;;;;5.57;0.85;;;15.80;1.00;;;;;;5045654;28;20094;-63
2021/05/22 05:32:00;;;;;;;1.55;0.60;;;14.30;1.00;;;;;;5044166;28;20041;-63
2021/05/22 05:34:48;;;;;;;2.28;0.65;;;14.50;1.00;;;;;;5045728;28;20117;-63
2021/05/22 05:37:36;;;;;;;2.15;0.60;;;15.40;1.00;;;;;;5047807;28;20041;-64
2021/05/22 05:40:25;;;;;;;3.35;0.80;;;16.10;1.00;;;;;;5045559;28;20129;-64
2021/05/22 05:43:14;;;;;;;1.80;0.82;;;16.70;1.00;;;;;;5046048;28;20060;-63
2021/05/22 05:46:01;;;;;;;3.35;0.63;;;15.80;1.00;;;;;;5044128;28;20122;-64
2021/05/22 05:48:49;;;;;;;1.65;0.70;;;16.10;1.00;;;;;;5044325;28;20073;-64
2021/05/22 05:51:37;;;;;;;2.28;1.08;;;15.70;1.00;;;;;;5044462;28;20040;-62
2021/05/22 05:54:26;;;;;;;2.40;0.50;;;15.20;1.00;;;;;;5048420;28;20107;-64
2021/05/22 05:57:15;;;;;;;1.88;0.77;;;14.30;1.00;;;;;;5046773;28;20049;-62
2021/05/22 06:00:05;;;;;;;3.72;0.93;;;13.20;1.00;;;;;;5044434;28;20406;-63
2021/05/22 06:02:53;;;;;;;2.35;0.88;;;13.20;1.00;;;;;;5047250;28;20053;-64
2021/05/22 06:05:41;;;;;;;3.13;0.90;;;14.40;1.00;;;;;;5044384;28;20056;-63
2021/05/22 06:08:29;;;;;;;2.05;0.77;;;15.20;1.00;;;;;;5046764;28;20053;-64
2021/05/22 06:11:19;;;;;;;2.92;1.13;;;15.90;1.00;;;;;;5042462;28;20091;-63
2021/05/22 06:14:13;;;;;;;4.32;0.90;;;15.10;1.00;;;;;;5047872;28;20056;-63
2021/05/22 06:17:01;;;;;;;4.20;1.05;;;16.30;1.00;;;;;;5044630;28;20044;-63
2021/05/22 06:19:51;;;;;;;5.38;1.10;;;15.80;1.00;;;;;;5043939;28;20167;-62
2021/05/22 06:22:39;;;;;;;2.72;1.35;;;15.80;1.00;;;;;;5046323;28;20085;-63
2021/05/22 06:25:30;;;;;;;2.10;0.65;;;16.50;1.00;;;;;;5043728;28;20053;-63
2021/05/22 06:28:19;;;;;;;1.83;0.80;;;15.70;1.00;;;;;;5044206;28;20053;-63
2021/05/22 06:31:08;;;;;;;4.20;0.70;;;16.10;1.00;;;;;;5041247;28;20072;-64
2021/05/22 06:33:56;;;;;;;3.63;1.00;;;14.30;1.00;;;;;;5045791;28;20053;-64
2021/05/22 06:36:44;;;;;;;4.43;0.80;;;14.10;1.00;;;;;;5043954;28;20505;-63
2021/05/22 06:39:32;;;;;;;3.15;0.95;;;13.80;1.00;;;;;;5044295;28;20056;-63
2021/05/22 06:42:20;;;;;;;3.72;0.90;;;13.80;1.00;;;;;;5028655;28;20052;-64
2021/05/22 06:45:11;;;;;;;4.47;0.93;;;13.60;1.00;;;;;;5042574;28;20049;-64
2021/05/22 06:48:00;;;;;;;4.20;0.95;;;13.50;1.00;;;;;;5049031;28;20045;-64
2021/05/22 06:50:48;;;;;;;5.43;1.48;;;13.70;1.00;;;;;;5041357;28;20584;-63
2021/05/22 06:53:37;;;;;;;2.25;0.80;;;13.70;1.00;;;;;;5028766;28;20087;-63
2021/05/22 06:56:25;;;;;;;2.53;0.80;;;13.90;1.00;;;;;;5032606;28;20052;-63
2021/05/22 06:59:13;;;;;;;3.20;1.10;;;13.90;1.00;;;;;;5044112;28;20134;-64
2021/05/22 07:02:01;;;;;;;3.05;0.85;;;13.90;1.00;;;;;;5041477;28;20171;-64
2021/05/22 07:04:49;;;;;;;2.47;0.90;;;13.80;1.00;;;;;;5045000;28;20402;-64
2021/05/22 07:07:39;;;;;;;4.75;0.98;;;13.50;1.00;;;;;;5045787;28;20520;-63
2021/05/22 07:10:27;;;;;;;1.95;0.70;;;13.60;1.00;;;;;;5042310;28;20072;-63
2021/05/22 07:13:15;;;;;;;5.53;1.42;;;13.40;1.00;;;;;;5046372;28;20410;-64
2021/05/22 07:16:04;;;;;;;5.40;1.05;;;13.50;1.00;;;;;;5045672;28;20091;-64
2021/05/22 07:18:52;;;;;;;4.93;1.10;;;13.70;1.00;;;;;;5042117;28;20048;-63
2021/05/22 07:21:41;;;;;;;5.72;2.13;;;14.30;1.00;;;;;;5040057;28;20123;-62
2021/05/22 07:24:29;;;;;;;4.03;0.90;;;14.40;1.00;;;;;;5046301;28;20072;-64
2021/05/22 07:27:17;;;;;;;3.72;0.85;;;14.40;1.00;;;;;;5045884;28;20051;-64
2021/05/22 07:30:10;;;;;;;2.40;1.05;;;14.60;1.00;;;;;;5041368;28;20123;-64
2021/05/22 07:33:00;;;;;;;2.05;0.93;;;15.20;1.00;;;;;;5044822;28;20044;-64
2021/05/22 07:35:48;;;;;;;2.97;1.30;;;15.00;1.00;;;;;;5043152;28;20060;-64
2021/05/22 07:38:38;;;;;;;3.00;1.00;;;14.90;1.00;;;;;;5045406;28;20144;-63
2021/05/22 07:41:26;;;;;;;2.88;0.85;;;15.50;1.00;;;;;;5041131;28;20064;-64
2021/05/22 07:44:14;;;;;;;3.05;0.80;;;15.10;1.00;;;;;;5045156;28;20079;-63
2021/05/22 07:47:02;;;;;;;3.45;0.98;;;14.50;1.00;;;;;;5045297;28;20140;-63
2021/05/22 07:49:51;;;;;;;5.60;1.05;;;14.80;1.00;;;;;;5043425;28;20479;-64
2021/05/22 07:52:42;;;;;;;2.83;0.93;;;15.10;1.00;;;;;;5043586;28;20069;-64
2021/05/22 07:55:32;;;;;;;3.47;1.13;;;15.30;1.00;;;;;;5041717;28;20120;-63
2021/05/22 07:58:20;;;;;;;1.85;0.60;;;14.90;1.00;;;;;;5044811;28;20132;-64
2021/05/22 08:01:08;;;;;;;3.28;0.90;;;14.50;1.00;;;;;;5040311;28;20384;-64
2021/05/22 08:03:55;;;;;;;4.13;0.95;;;15.10;1.00;;;;;;5047540;28;20229;-63
2021/05/22 08:06:43;;;;;;;3.38;1.25;;;15.40;1.00;;;;;;5047125;28;20190;-63
2021/05/22 08:09:31;;;;;;;3.35;1.15;;;15.40;1.00;;;;;;5042103;28;20377;-64
2021/05/22 08:12:20;;;;;;;9.25;1.65;;;15.60;1.00;;;;;;5042495;28;20048;-64
2021/05/22 08:15:08;;;;;;;3.63;0.82;;;15.80;1.00;;;;;;5045339;28;20052;-62
2021/05/22 08:17:56;;;;;;;3.67;1.10;;;15.50;1.00;;;;;;5043534;28;20041;-63
2021/05/22 08:20:44;;;;;;;3.83;0.80;;;15.50;1.00;;;;;;5041084;28;20049;-62
2021/05/22 08:23:32;;;;;;;3.78;1.10;;;14.80;1.00;;;;;;5045559;28;20102;-63
2021/05/22 08:26:22;;;;;;;4.80;0.93;;;15.10;1.00;;;;;;5040916;28;20049;-63
2021/05/22 08:29:30;;;;;;;4.07;1.08;;;15.30;1.00;;;;;;5042160;28;20053;-63
2021/05/22 08:32:18;;;;;;;4.00;0.90;;;15.60;1.00;;;;;;5041746;28;20480;-63
2021/05/22 08:35:08;;;;;;;2.58;1.30;;;15.20;1.00;;;;;;5043466;28;20501;-63
2021/05/22 08:37:56;;;;;;;4.65;1.15;;;15.80;1.00;;;;;;5041972;28;20678;-63
2021/05/22 08:40:43;;;;;;;3.75;0.90;;;16.10;1.00;;;;;;5037769;28;20044;-63
2021/05/22 08:43:32;;;;;;;2.65;0.85;;;16.50;1.00;;;;;;5048623;28;20041;-63
2021/05/22 08:46:21;;;;;;;2.60;0.77;;;16.30;1.00;;;;;;5048916;28;20055;-64
2021/05/22 08:49:11;;;;;;;3.03;0.90;;;16.40;1.00;;;;;;5046636;28;20136;-63
2021/05/22 08:51:59;;;;;;;2.25;0.80;;;16.60;1.00;;;;;;5045035;28;20049;-64
2021/05/22 08:54:47;;;;;;;4.30;1.25;;;16.60;1.00;;;;;;5046687;28;20055;-63
2021/05/22 08:57:35;;;;;;;5.68;0.77;;;16.40;1.00;;;;;;5050001;28;20079;-62
2021/05/22 09:00:25;;;;;;;3.30;0.80;;;16.30;1.00;;;;;;5045522;28;20087;-64
2021/05/22 09:03:14;;;;;;;2.60;0.95;;;16.10;1.00;;;;;;5047862;28;20077;-63
2021/05/22 09:06:03;;;;;;;1.40;0.73;;;16.40;1.00;;;;;;5045889;28;20049;-64
2021/05/22 09:09:03;;;;;;;2.75;0.73;;;16.50;1.00;;;;;;5046187;28;20048;-63
2021/05/22 09:11:52;;;;;;;3.95;1.02;;;17.00;1.00;;;;;;5044614;28;20056;-63
2021/05/22 09:14:43;;;;;;;1.50;0.70;;;16.30;1.00;;;;;;5044066;28;20092;-64
2021/05/22 09:17:31;;;;;;;2.15;0.80;;;16.60;1.00;;;;;;5048271;28;20080;-63
2021/05/22 09:20:23;;;;;;;2.80;0.75;;;17.10;1.00;;;;;;5044519;28;20053;-64
2021/05/22 09:23:12;;;;;;;4.80;0.88;;;17.30;1.00;;;;;;5047689;28;20081;-63
2021/05/22 09:26:02;;;;;;;3.13;0.88;;;17.10;1.00;;;;;;5047635;28;20500;-63
2021/05/22 09:28:51;;;;;;;3.55;0.90;;;16.80;1.00;;;;;;5046568;28;20562;-64
2021/05/22 09:31:41;;;;;;;4.65;0.77;;;17.10;1.00;;;;;;5043861;28;20128;-64
2021/05/22 09:34:29;;;;;;;3.83;0.80;;;17.10;1.00;;;;;;5046465;28;20045;-64
2021/05/22 09:37:18;;;;;;;1.98;0.80;;;17.50;1.00;;;;;;5044893;28;20053;-64
2021/05/22 09:40:07;;;;;;;2.97;0.80;;;17.50;1.00;;;;;;5044945;28;20110;-65
2021/05/22 09:42:57;;;;;;;1.75;0.60;;;17.60;1.00;;;;;;5047488;28;20159;-65
2021/05/22 09:45:46;;;;;;;3.35;1.00;;;17.90;1.00;;;;;;5044874;28;20048;-59
2021/05/22 09:48:36;;;;;;;3.47;0.63;;;17.90;1.00;;;;;;5047016;28;20130;-59
2021/05/22 09:51:24;;;;;;;2.95;0.75;;;18.20;1.00;;;;;;5042478;28;20168;-60
2021/05/22 09:54:13;;;;;;;2.05;0.63;;;18.20;1.00;;;;;;5045550;28;20056;-60
2021/05/22 09:57:01;;;;;;;3.75;1.05;;;18.00;1.00;;;;;;5046181;28;20056;-60
2021/05/22 10:00:11;;;;;;;3.08;0.65;;;18.30;1.00;;;;;;5030722;28;20064;-59
2021/05/22 10:03:01;;;;;;;3.60;0.60;;;18.40;1.00;;;;;;5044946;28;20191;-60
2021/05/22 10:05:49;;;;;;;2.45;0.93;;;18.90;1.00;;;;;;5043042;28;20056;-59
2021/05/22 10:08:37;;;;;;;3.38;0.90;;;18.30;1.00;;;;;;5045640;28;20128;-60
2021/05/22 10:11:26;;;;;;;2.83;0.70;;;17.50;1.00;;;;;;5040336;28;20145;-58
2021/05/22 10:14:15;;;;;;;8.05;1.05;;;17.70;1.00;;;;;;5045433;28;20076;-59
2021/05/22 10:17:04;;;;;;;1.92;0.60;;;17.80;1.00;;;;;;5045445;28;20544;-58
2021/05/22 10:19:53;;;;;;;3.65;0.73;;;17.30;1.00;;;;;;5045398;28;20662;-59
2021/05/22 10:22:41;;;;;;;2.55;0.90;;;17.60;1.00;;;;;;5044902;28;20045;-59
2021/05/22 10:25:30;;;;;;;3.15;1.00;;;17.60;1.00;;;;;;5044621;28;20072;-59
2021/05/22 10:28:19;;;;;;;2.63;0.85;;;17.40;1.00;;;;;;5045566;28;20045;-60
2021/05/22 10:31:07;;;;;;;2.28;0.80;;;17.90;1.00;;;;;;5043031;28;20140;-60
2021/05/22 10:33:54;;;;;;;2.53;0.90;;;18.20;1.00;;;;;;5044684;28;20122;-59
2021/05/22 10:36:51;;;;;;;1.98;0.40;;;17.80;1.00;;;;;;5041437;28;20053;-59
2021/05/22 10:39:43;;;;;;;1.80;0.70;;;17.30;1.00;;;;;;5043352;28;20090;-59
2021/05/22 10:42:55;;;;;;;1.92;0.65;;;18.30;1.00;;;;;;5043879;28;20060;-59
2021/05/22 10:45:44;;;;;;;2.30;0.85;;;17.60;1.00;;;;;;5044318;28;20041;-59
2021/05/22 10:48:51;;;;;;;3.17;0.50;;;17.80;1.00;;;;;;5043903;28;20178;-59
2021/05/22 10:51:39;;;;;;;2.80;0.63;;;18.40;1.00;;;;;;5042897;28;20053;-59
2021/05/22 10:54:26;;;;;;;1.48;0.52;;;17.50;1.00;;;;;;5042125;28;20040;-59
2021/05/22 10:57:14;;;;;;;2.80;0.98;;;17.00;1.00;;;;;;5045460;28;20131;-59
2021/05/22 11:00:23;;;;;;;1.20;0.60;;;18.00;1.00;;;;;;5043637;28;20089;-59
2021/05/22 11:03:13;;;;;;;5.05;0.88;;;17.90;1.00;;;;;;5045335;28;20041;-59
2021/05/22 11:06:02;;;;;;;0.95;0.60;;;18.10;1.00;;;;;;5042354;28;20114;-60
2021/05/22 11:08:49;;;;;;;2.00;0.50;;;18.20;1.00;;;;;;5042785;28;20056;-60
2021/05/22 11:11:58;;;;;;;1.13;0.50;;;18.30;1.00;;;;;;5041519;28;20114;-58
2021/05/22 11:14:48;;;;;;;1.77;0.43;;;18.50;1.00;;;;;;5045342;28;20162;-59
2021/05/22 11:17:51;;;;;;;1.80;0.50;;;19.10;1.00;;;;;;5044999;28;20102;-60
2021/05/22 11:20:42;;;;;;;1.98;0.70;;;18.80;1.00;;;;;;5039742;28;20359;-60
2021/05/22 11:23:50;;;;;;;1.70;0.60;;;18.30;1.00;;;;;;5045128;28;20512;-60
2021/05/22 11:26:57;;;;;;;1.38;0.77;;;17.80;1.00;;;;;;5044192;28;20041;-59
2021/05/22 11:30:06;;;;;;;2.47;0.52;;;18.30;1.00;;;;;;5042759;28;20062;-59
2021/05/22 11:32:56;;;;;;;2.38;0.70;;;19.00;1.00;;;;;;5044718;28;20512;-59
2021/05/22 11:35:47;;;;;;;2.88;0.68;;;17.80;1.00;;;;;;5044221;28;20425;-59
2021/05/22 11:38:37;;;;;;;1.70;0.70;;;17.60;1.00;;;;;;5044964;28;20064;-59
2021/05/22 11:41:31;;;;;;;3.10;0.65;;;18.30;1.00;;;;;;5039455;28;20049;-59
2021/05/22 11:44:23;;;;;;;2.55;0.85;;;17.60;1.00;;;;;;5046284;28;20056;-59
2021/05/22 11:47:11;;;;;;;2.63;0.65;;;17.80;1.00;;;;;;5044319;28;20052;-60
2021/05/22 11:50:00;;;;;;;3.03;0.70;;;18.30;1.00;;;;;;5042058;28;20079;-61
2021/05/22 11:52:48;;;;;;;3.22;0.98;;;18.00;1.00;;;;;;5042331;28;20067;-59
2021/05/22 11:55:36;;;;;;;4.65;0.98;;;17.20;1.00;;;;;;5040288;28;20091;-59
2021/05/22 11:58:24;;;;;;;1.80;0.77;;;17.20;1.00;;;;;;5045890;28;20135;-59
2021/05/22 12:01:15;;;;;;;2.55;0.60;;;18.10;1.00;;;;;;5041675;28;20151;-60
2021/05/22 12:04:06;;;;;;;3.22;0.85;;;18.10;1.00;;;;;;5044176;28;20420;-60
2021/05/22 12:06:55;;;;;;;0.80;0.50;;;17.80;1.00;;;;;;5042807;28;20037;-60
2021/05/22 12:09:43;;;;;;;2.17;0.65;;;17.30;1.00;;;;;;5042139;28;20627;-60
2021/05/22 12:12:31;;;;;;;2.63;0.57;;;17.50;1.00;;;;;;5040425;28;20194;-60
2021/05/22 12:15:24;;;;;;;3.58;0.63;;;17.70;1.00;;;;;;5042576;28;20053;-59
2021/05/22 12:18:14;;;;;;;3.03;0.70;;;18.30;1.00;;;;;;5044716;28;20064;-59
2021/05/22 12:21:02;;;;;;;1.33;0.63;;;18.60;1.00;;;;;;5044455;28;20126;-60
2021/05/22 12:23:51;;;;;;;1.88;0.60;;;18.40;1.00;;;;;;5047242;28;20049;-59
2021/05/22 12:26:46;;;;;;;2.10;0.70;;;18.30;1.00;;;;;;5045580;28;20063;-61
2021/05/22 12:29:34;;;;;;;4.25;0.77;;;18.40;1.00;;;;;;5043699;28;20057;-59
2021/05/22 12:32:22;;;;;;;1.30;0.40;;;18.00;1.00;;;;;;5046071;28;20139;-59
2021/05/22 12:35:14;;;;;;;3.60;0.75;;;18.50;1.00;;;;;;5047537;28;20135;-59
2021/05/22 12:38:02;;;;;;;4.00;0.60;;;19.30;1.00;;;;;;5046069;28;20214;-59
2021/05/22 12:40:51;;;;;;;3.08;0.75;;;19.40;1.00;;;;;;5044174;28;20063;-60
2021/05/22 12:43:43;;;;;;;1.40;0.60;;;18.90;1.00;;;;;;5047925;28;20199;-59
2021/05/22 12:46:33;;;;;;;4.38;0.88;;;18.20;1.00;;;;;;5046425;28;20051;-59
2021/05/22 12:49:21;;;;;;;1.52;0.45;;;19.10;1.00;;;;;;5046560;28;20049;-60
2021/05/22 12:52:10;;;;;;;2.17;0.68;;;18.70;1.00;;;;;;5048977;28;20064;-59
2021/05/22 12:54:58;;;;;;;1.85;0.57;;;18.70;1.00;;;;;;5045661;28;20052;-59
2021/05/22 12:57:47;;;;;;;2.58;0.60;;;18.10;1.00;;;;;;5045851;28;20154;-58
2021/05/22 13:00:36;;;;;;;2.58;0.45;;;18.00;1.00;;;;;;5041803;28;20130;-59
2021/05/22 13:03:39;;;;;;;1.85;0.52;;;18.10;1.00;;;;;;5045326;28;20037;-59
2021/05/22 13:06:28;;;;;;;3.50;0.73;;;17.60;1.00;;;;;;5046269;28;20134;-59
2021/05/22 13:09:17;;;;;;;4.95;0.90;;;17.80;1.00;;;;;;5046850;28;20087;-59
2021/05/22 13:12:05;;;;;;;1.38;0.70;;;17.90;1.00;;;;;;5045478;28;20492;-60
2021/05/22 13:14:58;;;;;;;2.53;0.80;;;18.10;1.00;;;;;;5047882;28;20175;-60
2021/05/22 13:17:50;;;;;;;1.67;0.70;;;18.70;1.00;;;;;;5047388;28;20045;-60
2021/05/22 13:20:40;;;;;;;4.82;1.02;;;18.40;1.00;;;;;;5042718;28;20550;-60
2021/05/22 13:23:34;;;;;;;2.50;0.60;;;17.90;1.00;;;;;;5047672;28;20489;-60
2021/05/22 13:26:25;;;;;;;2.28;0.75;;;18.60;1.00;;;;;;5045132;28;20114;-59
2021/05/22 13:29:13;;;;;;;2.75;0.82;;;18.50;1.00;;;;;;5045537;28;20053;-59
2021/05/22 13:32:01;;;;;;;2.63;0.50;;;18.70;1.00;;;;;;5043674;28;20059;-59
2021/05/22 13:34:50;;;;;;;1.35;0.50;;;19.20;1.00;;;;;;5042698;28;20048;-59
2021/05/22 13:37:38;;;;;;;1.83;0.68;;;18.90;1.00;;;;;;5048704;28;20115;-59
2021/05/22 13:40:29;;;;;;;3.47;0.80;;;18.50;1.00;;;;;;5042512;28;20064;-59
2021/05/22 13:43:18;;;;;;;2.05;0.60;;;18.80;1.00;;;;;;5047091;28;20206;-61
2021/05/22 13:46:06;;;;;;;1.48;0.60;;;19.10;1.00;;;;;;5047631;28;20048;-60
2021/05/22 13:48:54;;;;;;;3.88;0.60;;;19.10;1.00;;;;;;5046483;28;20535;-59
2021/05/22 13:51:45;;;;;;;2.90;0.80;;;19.40;1.00;;;;;;5043889;28;20136;-60
2021/05/22 13:54:33;;;;;;;1.25;0.65;;;19.40;1.00;;;;;;5044703;28;20041;-60
2021/05/22 13:57:21;;;;;;;1.17;0.40;;;19.50;1.00;;;;;;5044224;28;20060;-60
2021/05/22 14:00:12;;;;;;;1.70;0.43;;;19.00;1.00;;;;;;5043632;28;20057;-60
2021/05/22 14:03:00;;;;;;;3.10;0.60;;;18.40;1.00;;;;;;5044904;28;20049;-60
2021/05/22 14:05:48;;;;;;;4.45;1.10;;;17.80;1.00;;;;;;5047087;28;20802;-60
2021/05/22 14:08:36;;;;;;;2.35;0.65;;;18.40;1.00;;;;;;5048086;28;20511;-60
2021/05/22 14:11:24;;;;;;;3.13;0.60;;;18.30;1.00;;;;;;5041953;28;20060;-59
2021/05/22 14:14:12;;;;;;;2.42;0.70;;;18.20;1.00;;;;;;5045295;28;20045;-60
2021/05/22 14:17:01;;;;;;;2.17;0.63;;;18.80;1.00;;;;;;5042092;28;20045;-60
2021/05/22 14:19:49;;;;;;;2.03;0.40;;;18.90;1.00;;;;;;5044198;28;20125;-60
2021/05/22 14:22:37;;;;;;;1.95;0.40;;;18.70;1.00;;;;;;5043553;28;20076;-60
2021/05/22 14:25:25;;;;;;;1.40;0.68;;;18.60;1.00;;;;;;5044134;28;20111;-60
2021/05/22 14:28:13;;;;;;;0.60;0.30;;;18.80;1.00;;;;;;5045236;28;20175;-60
2021/05/22 14:31:01;;;;;;;0.98;0.60;;;19.00;1.00;;;;;;5044003;28;20048;-60
2021/05/22 14:33:50;;;;;;;0.65;0.50;;;18.80;1.00;;;;;;5046657;28;20520;-59
2021/05/22 14:36:38;;;;;;;2.30;0.60;;;18.60;1.00;;;;;;5044803;28;20076;-59
2021/05/22 14:39:26;;;;;;;2.22;0.50;;;18.60;1.00;;;;;;5043090;28;20045;-60
2021/05/22 14:42:14;;;;;;;3.80;0.52;;;18.70;1.00;;;;;;5045089;28;20044;-59
2021/05/22 14:45:03;;;;;;;2.85;0.70;;;18.20;1.00;;;;;;5043544;28;20056;-59
2021/05/22 14:47:52;;;;;;;1.05;0.50;;;18.60;1.00;;;;;;5043470;28;20041;-60
2021/05/22 14:50:41;;;;;;;2.40;0.88;;;18.90;1.00;;;;;;5038838;28;20199;-60
2021/05/22 14:53:28;;;;;;;1.95;0.70;;;18.50;1.00;;;;;;5042296;28;20041;-60
2021/05/22 14:56:16;;;;;;;3.80;0.98;;;18.60;1.00;;;;;;5044097;28;20098;-61